sensor_id;sensor_type;location;lat;lon;timestamp;P1;P2;P0
57623;PMS7003;43448;52.264;20.644;2023-05-07T00:00:01;4;4;
57623;PMS7003;43448;52.264;20.644;2023-05-07T00:10:01;4;3;
57623;PMS7003;43448;52.264;20.644;2023-05-07T00:20:00;2;2;
57623;PMS7003;43448;52.264;20.644;2023-05-07T00:30:00;5;4;
57623;PMS7003;43448;52.264;20.644;2023-05-07T00:40:00;3;3;
57623;PMS7003;43448;52.264;20.644;2023-05-07T00:50:00;4;3;
57623;PMS7003;43448;52.264;20.644;2023-05-07T01:00:01;3;3;
57623;PMS7003;43448;52.264;20.644;2023-05-07T01:10:00;4;4;
57623;PMS7003;43448;52.264;20.644;2023-05-07T01:20:00;2;1;
57623;PMS7003;43448;52.264;20.644;2023-05-07T01:30:00;3;3;
57623;PMS7003;43448;52.264;20.644;2023-05-07T01:40:00;4;4;
57623;PMS7003;43448;52.264;20.644;2023-05-07T01:50:00;5;3;
57623;PMS7003;43448;52.264;20.644;2023-05-07T02:00:01;4;4;
57623;PMS7003;43448;52.264;20.644;2023-05-07T02:10:00;3;3;
57623;PMS7003;43448;52.264;20.644;2023-05-07T02:20:00;4;3;
57623;PMS7003;43448;52.264;20.644;2023-05-07T02:30:01;2;2;
57623;PMS7003;43448;52.264;20.644;2023-05-07T02:40:00;4;2;
57623;PMS7003;43448;52.264;20.644;2023-05-07T02:50:00;3;3;
57623;PMS7003;43448;52.264;20.644;2023-05-07T03:00:09;5;3;
57623;PMS7003;43448;52.264;20.644;2023-05-07T03:10:00;2;2;
57623;PMS7003;43448;52.264;20.644;2023-05-07T03:20:00;2;1;
57623;PMS7003;43448;52.264;20.644;2023-05-07T03:30:00;3;3;
57623;PMS7003;43448;52.264;20.644;2023-05-07T03:40:00;3;3;
57623;PMS7003;43448;52.264;20.644;2023-05-07T03:50:00;3;3;
57623;PMS7003;43448;52.264;20.644;2023-05-07T04:00:01;1;1;
57623;PMS7003;43448;52.264;20.644;2023-05-07T04:10:01;2;2;
57623;PMS7003;43448;52.264;20.644;2023-05-07T04:20:01;3;3;
57623;PMS7003;43448;52.264;20.644;2023-05-07T04:30:00;3;3;
57623;PMS7003;43448;52.264;20.644;2023-05-07T04:40:00;2;2;
57623;PMS7003;43448;52.264;20.644;2023-05-07T04:50:00;3;3;
57623;PMS7003;43448;52.264;20.644;2023-05-07T05:00:01;2;2;
57623;PMS7003;43448;52.264;20.644;2023-05-07T05:10:01;2;2;
57623;PMS7003;43448;52.264;20.644;2023-05-07T05:20:00;2;2;
57623;PMS7003;43448;52.264;20.644;2023-05-07T05:30:01;3;3;
57623;PMS7003;43448;52.264;20.644;2023-05-07T05:40:00;1;1;
57623;PMS7003;43448;52.264;20.644;2023-05-07T05:50:01;2;2;
57623;PMS7003;43448;52.264;20.644;2023-05-07T06:00:01;2;2;
57623;PMS7003;43448;52.264;20.644;2023-05-07T06:10:00;2;2;
57623;PMS7003;43448;52.264;20.644;2023-05-07T06:20:00;2;2;
57623;PMS7003;43448;52.264;20.644;2023-05-07T06:30:00;2;2;
57623;PMS7003;43448;52.264;20.644;2023-05-07T06:40:00;2;2;
57623;PMS7003;43448;52.264;20.644;2023-05-07T06:50:00;3;3;
57623;PMS7003;43448;52.264;20.644;2023-05-07T07:00:01;2;2;
57623;PMS7003;43448;52.264;20.644;2023-05-07T07:10:00;2;2;
57623;PMS7003;43448;52.264;20.644;2023-05-07T07:20:00;2;2;
57623;PMS7003;43448;52.264;20.644;2023-05-07T07:30:00;2;1;
57623;PMS7003;43448;52.264;20.644;2023-05-07T07:40:00;4;2;
57623;PMS7003;43448;52.264;20.644;2023-05-07T07:50:00;1;1;
57623;PMS7003;43448;52.264;20.644;2023-05-07T08:00:01;2;2;
57623;PMS7003;43448;52.264;20.644;2023-05-07T08:10:00;6;2;
57623;PMS7003;43448;52.264;20.644;2023-05-07T08:20:00;1;1;
57623;PMS7003;43448;52.264;20.644;2023-05-07T08:30:01;1;1;
57623;PMS7003;43448;52.264;20.644;2023-05-07T08:40:00;2;2;
57623;PMS7003;43448;52.264;20.644;2023-05-07T08:50:01;3;3;
57623;PMS7003;43448;52.264;20.644;2023-05-07T09:00:01;2;2;
57623;PMS7003;43448;52.264;20.644;2023-05-07T09:10:01;2;2;
57623;PMS7003;43448;52.264;20.644;2023-05-07T09:20:02;2;2;
57623;PMS7003;43448;52.264;20.644;2023-05-07T09:30:03;3;2;
57623;PMS7003;43448;52.264;20.644;2023-05-07T09:40:00;0;0;
57623;PMS7003;43448;52.264;20.644;2023-05-07T09:50:00;4;1;
57623;PMS7003;43448;52.264;20.644;2023-05-07T10:00:02;3;2;
57623;PMS7003;43448;52.264;20.644;2023-05-07T10:10:00;2;2;
57623;PMS7003;43448;52.264;20.644;2023-05-07T10:20:00;4;3;
57623;PMS7003;43448;52.264;20.644;2023-05-07T10:30:03;2;2;
57623;PMS7003;43448;52.264;20.644;2023-05-07T10:40:00;2;2;
57623;PMS7003;43448;52.264;20.644;2023-05-07T10:50:22;3;3;
57623;PMS7003;43448;52.264;20.644;2023-05-07T11:00:01;2;2;
57623;PMS7003;43448;52.264;20.644;2023-05-07T11:10:02;2;2;
57623;PMS7003;43448;52.264;20.644;2023-05-07T11:20:01;1;1;
57623;PMS7003;43448;52.264;20.644;2023-05-07T11:30:00;1;1;
57623;PMS7003;43448;52.264;20.644;2023-05-07T11:40:02;1;1;
57623;PMS7003;43448;52.264;20.644;2023-05-07T11:50:02;1;1;
57623;PMS7003;43448;52.264;20.644;2023-05-07T12:00:01;2;2;
57623;PMS7003;43448;52.264;20.644;2023-05-07T12:10:03;1;1;
57623;PMS7003;43448;52.264;20.644;2023-05-07T12:20:00;1;1;
57623;PMS7003;43448;52.264;20.644;2023-05-07T12:30:00;4;2;
57623;PMS7003;43448;52.264;20.644;2023-05-07T12:40:04;5;4;
57623;PMS7003;43448;52.264;20.644;2023-05-07T12:50:00;2;2;
57623;PMS7003;43448;52.264;20.644;2023-05-07T13:00:01;3;3;
57623;PMS7003;43448;52.264;20.644;2023-05-07T13:10:01;3;3;
57623;PMS7003;43448;52.264;20.644;2023-05-07T13:20:01;2;2;
57623;PMS7003;43448;52.264;20.644;2023-05-07T13:30:01;2;2;
57623;PMS7003;43448;52.264;20.644;2023-05-07T13:40:01;3;3;
57623;PMS7003;43448;52.264;20.644;2023-05-07T13:50:00;2;2;
57623;PMS7003;43448;52.264;20.644;2023-05-07T14:00:01;3;3;
57623;PMS7003;43448;52.264;20.644;2023-05-07T14:10:00;2;2;
57623;PMS7003;43448;52.264;20.644;2023-05-07T14:20:00;1;1;
57623;PMS7003;43448;52.264;20.644;2023-05-07T14:30:01;1;1;
57623;PMS7003;43448;52.264;20.644;2023-05-07T14:40:00;1;1;
57623;PMS7003;43448;52.264;20.644;2023-05-07T14:50:00;2;1;
57623;PMS7003;43448;52.264;20.644;2023-05-07T15:00:01;3;3;
57623;PMS7003;43448;52.264;20.644;2023-05-07T15:10:00;1;1;
57623;PMS7003;43448;52.264;20.644;2023-05-07T15:20:00;1;0;
57623;PMS7003;43448;52.264;20.644;2023-05-07T15:30:01;3;1;
57623;PMS7003;43448;52.264;20.644;2023-05-07T15:40:00;2;2;
57623;PMS7003;43448;52.264;20.644;2023-05-07T15:50:00;2;2;
57623;PMS7003;43448;52.264;20.644;2023-05-07T16:00:01;2;2;
57623;PMS7003;43448;52.264;20.644;2023-05-07T16:10:00;3;3;
57623;PMS7003;43448;52.264;20.644;2023-05-07T16:20:01;2;2;
57623;PMS7003;43448;52.264;20.644;2023-05-07T16:30:00;3;3;
57623;PMS7003;43448;52.264;20.644;2023-05-07T16:40:01;3;0;
57623;PMS7003;43448;52.264;20.644;2023-05-07T16:50:01;5;2;
57623;PMS7003;43448;52.264;20.644;2023-05-07T17:00:01;2;1;
57623;PMS7003;43448;52.264;20.644;2023-05-07T17:10:00;3;3;
57623;PMS7003;43448;52.264;20.644;2023-05-07T17:20:00;3;3;
57623;PMS7003;43448;52.264;20.644;2023-05-07T17:30:01;3;3;
57623;PMS7003;43448;52.264;20.644;2023-05-07T17:40:01;3;3;
57623;PMS7003;43448;52.264;20.644;2023-05-07T17:50:01;2;2;
57623;PMS7003;43448;52.264;20.644;2023-05-07T18:00:01;1;1;
57623;PMS7003;43448;52.264;20.644;2023-05-07T18:10:00;5;2;
57623;PMS7003;43448;52.264;20.644;2023-05-07T18:20:00;2;2;
57623;PMS7003;43448;52.264;20.644;2023-05-07T18:30:01;4;4;
57623;PMS7003;43448;52.264;20.644;2023-05-07T18:40:01;4;3;
57623;PMS7003;43448;52.264;20.644;2023-05-07T18:50:00;6;4;
57623;PMS7003;43448;52.264;20.644;2023-05-07T19:00:01;7;5;
57623;PMS7003;43448;52.264;20.644;2023-05-07T19:10:00;5;5;
57623;PMS7003;43448;52.264;20.644;2023-05-07T19:20:01;10;5;
57623;PMS7003;43448;52.264;20.644;2023-05-07T19:30:00;5;5;
57623;PMS7003;43448;52.264;20.644;2023-05-07T19:40:00;4;4;
57623;PMS7003;43448;52.264;20.644;2023-05-07T19:50:00;3;3;
57623;PMS7003;43448;52.264;20.644;2023-05-07T20:00:01;4;4;
57623;PMS7003;43448;52.264;20.644;2023-05-07T20:10:00;5;4;
57623;PMS7003;43448;52.264;20.644;2023-05-07T20:20:00;7;5;
57623;PMS7003;43448;52.264;20.644;2023-05-07T20:30:00;4;2;
57623;PMS7003;43448;52.264;20.644;2023-05-07T20:40:01;5;5;
57623;PMS7003;43448;52.264;20.644;2023-05-07T20:50:00;7;5;
57623;PMS7003;43448;52.264;20.644;2023-05-07T21:00:01;9;6;
57623;PMS7003;43448;52.264;20.644;2023-05-07T21:10:00;10;8;
57623;PMS7003;43448;52.264;20.644;2023-05-07T21:20:00;10;9;
57623;PMS7003;43448;52.264;20.644;2023-05-07T21:30:00;13;8;
57623;PMS7003;43448;52.264;20.644;2023-05-07T21:40:01;8;8;
57623;PMS7003;43448;52.264;20.644;2023-05-07T21:50:00;10;8;
57623;PMS7003;43448;52.264;20.644;2023-05-07T22:00:01;11;9;
57623;PMS7003;43448;52.264;20.644;2023-05-07T22:10:00;15;12;
57623;PMS7003;43448;52.264;20.644;2023-05-07T22:20:00;11;10;
57623;PMS7003;43448;52.264;20.644;2023-05-07T22:30:00;14;13;
57623;PMS7003;43448;52.264;20.644;2023-05-07T22:40:01;12;8;
57623;PMS7003;43448;52.264;20.644;2023-05-07T22:50:01;14;12;
57623;PMS7003;43448;52.264;20.644;2023-05-07T23:00:01;16;11;
57623;PMS7003;43448;52.264;20.644;2023-05-07T23:10:00;14;12;
57623;PMS7003;43448;52.264;20.644;2023-05-07T23:20:00;15;11;
57623;PMS7003;43448;52.264;20.644;2023-05-07T23:30:01;10;10;
57623;PMS7003;43448;52.264;20.644;2023-05-07T23:40:00;14;12;
57623;PMS7003;43448;52.264;20.644;2023-05-07T23:50:00;12;10;
